sensor_id;sensor_type;location;lat;lon;timestamp;P1;durP1;ratioP1;P2;durP2;ratioP2
62006;SDS011;47963;53.008;6.754;2022-10-16T00:01:11;19.88;;;5.38;;
62006;SDS011;47963;53.008;6.754;2022-10-16T00:03:38;16.38;;;5.28;;
62006;SDS011;47963;53.008;6.754;2022-10-16T00:06:05;11.80;;;4.72;;
62006;SDS011;47963;53.008;6.754;2022-10-16T00:08:32;14.70;;;4.95;;
62006;SDS011;47963;53.008;6.754;2022-10-16T00:11:09;16.13;;;5.68;;
62006;SDS011;47963;53.008;6.754;2022-10-16T00:13:35;17.98;;;5.38;;
62006;SDS011;47963;53.008;6.754;2022-10-16T00:16:02;16.75;;;5.13;;
62006;SDS011;47963;53.008;6.754;2022-10-16T00:18:29;14.95;;;5.35;;
62006;SDS011;47963;53.008;6.754;2022-10-16T00:20:55;18.10;;;5.00;;
62006;SDS011;47963;53.008;6.754;2022-10-16T00:23:26;13.05;;;5.20;;
62006;SDS011;47963;53.008;6.754;2022-10-16T00:25:58;17.30;;;5.00;;
62006;SDS011;47963;53.008;6.754;2022-10-16T00:28:26;15.60;;;4.90;;
62006;SDS011;47963;53.008;6.754;2022-10-16T00:30:53;19.10;;;5.40;;
62006;SDS011;47963;53.008;6.754;2022-10-16T00:33:19;17.92;;;4.88;;
62006;SDS011;47963;53.008;6.754;2022-10-16T00:35:44;19.00;;;4.85;;
62006;SDS011;47963;53.008;6.754;2022-10-16T00:38:10;20.17;;;5.00;;
62006;SDS011;47963;53.008;6.754;2022-10-16T00:40:36;17.88;;;5.07;;
62006;SDS011;47963;53.008;6.754;2022-10-16T00:43:02;14.82;;;4.80;;
62006;SDS011;47963;53.008;6.754;2022-10-16T00:45:27;18.25;;;5.03;;
62006;SDS011;47963;53.008;6.754;2022-10-16T00:47:53;18.08;;;5.03;;
62006;SDS011;47963;53.008;6.754;2022-10-16T00:50:30;17.95;;;5.20;;
62006;SDS011;47963;53.008;6.754;2022-10-16T00:52:58;15.13;;;5.05;;
62006;SDS011;47963;53.008;6.754;2022-10-16T00:55:25;15.70;;;4.85;;
62006;SDS011;47963;53.008;6.754;2022-10-16T00:57:53;15.70;;;5.20;;
62006;SDS011;47963;53.008;6.754;2022-10-16T01:00:23;14.25;;;5.13;;
62006;SDS011;47963;53.008;6.754;2022-10-16T01:02:57;14.43;;;4.90;;
62006;SDS011;47963;53.008;6.754;2022-10-16T01:05:30;13.52;;;4.50;;
62006;SDS011;47963;53.008;6.754;2022-10-16T01:13:48;15.10;;;6.05;;
62006;SDS011;47963;53.008;6.754;2022-10-16T01:16:28;14.13;;;4.15;;
62006;SDS011;47963;53.008;6.754;2022-10-16T01:19:02;14.45;;;5.05;;
62006;SDS011;47963;53.008;6.754;2022-10-16T01:21:36;17.10;;;4.90;;
62006;SDS011;47963;53.008;6.754;2022-10-16T01:24:09;18.85;;;5.50;;
62006;SDS011;47963;53.008;6.754;2022-10-16T01:29:34;17.10;;;4.90;;
62006;SDS011;47963;53.008;6.754;2022-10-16T01:34:58;15.32;;;4.85;;
62006;SDS011;47963;53.008;6.754;2022-10-16T01:37:38;13.32;;;4.78;;
62006;SDS011;47963;53.008;6.754;2022-10-16T01:40:14;17.83;;;4.63;;
62006;SDS011;47963;53.008;6.754;2022-10-16T01:42:46;16.30;;;4.53;;
62006;SDS011;47963;53.008;6.754;2022-10-16T01:45:15;13.50;;;4.65;;
62006;SDS011;47963;53.008;6.754;2022-10-16T01:47:44;13.18;;;4.88;;
62006;SDS011;47963;53.008;6.754;2022-10-16T01:50:11;15.18;;;5.18;;
62006;SDS011;47963;53.008;6.754;2022-10-16T01:52:39;12.23;;;4.35;;
62006;SDS011;47963;53.008;6.754;2022-10-16T01:55:07;13.73;;;4.70;;
62006;SDS011;47963;53.008;6.754;2022-10-16T01:57:36;15.52;;;4.50;;
62006;SDS011;47963;53.008;6.754;2022-10-16T02:00:07;15.32;;;4.90;;
62006;SDS011;47963;53.008;6.754;2022-10-16T02:02:35;12.32;;;4.72;;
62006;SDS011;47963;53.008;6.754;2022-10-16T02:05:05;13.30;;;4.80;;
62006;SDS011;47963;53.008;6.754;2022-10-16T02:07:47;12.63;;;4.57;;
62006;SDS011;47963;53.008;6.754;2022-10-16T02:10:13;14.05;;;5.07;;
62006;SDS011;47963;53.008;6.754;2022-10-16T02:12:40;16.58;;;5.28;;
62006;SDS011;47963;53.008;6.754;2022-10-16T02:15:09;13.80;;;5.30;;
62006;SDS011;47963;53.008;6.754;2022-10-16T02:17:35;13.77;;;5.43;;
62006;SDS011;47963;53.008;6.754;2022-10-16T02:20:00;15.85;;;5.90;;
62006;SDS011;47963;53.008;6.754;2022-10-16T02:22:28;13.35;;;5.60;;
62006;SDS011;47963;53.008;6.754;2022-10-16T02:24:58;13.95;;;5.32;;
62006;SDS011;47963;53.008;6.754;2022-10-16T02:28:00;13.50;;;5.38;;
62006;SDS011;47963;53.008;6.754;2022-10-16T02:30:38;16.40;;;5.32;;
62006;SDS011;47963;53.008;6.754;2022-10-16T02:33:08;14.38;;;6.03;;
62006;SDS011;47963;53.008;6.754;2022-10-16T02:35:38;16.27;;;5.55;;
62006;SDS011;47963;53.008;6.754;2022-10-16T02:38:06;16.38;;;5.90;;
62006;SDS011;47963;53.008;6.754;2022-10-16T02:40:32;13.45;;;5.72;;
62006;SDS011;47963;53.008;6.754;2022-10-16T02:42:58;12.15;;;5.43;;
62006;SDS011;47963;53.008;6.754;2022-10-16T02:45:24;19.20;;;5.97;;
62006;SDS011;47963;53.008;6.754;2022-10-16T02:47:50;15.38;;;5.20;;
62006;SDS011;47963;53.008;6.754;2022-10-16T02:50:15;14.32;;;5.47;;
62006;SDS011;47963;53.008;6.754;2022-10-16T02:52:41;13.90;;;5.72;;
62006;SDS011;47963;53.008;6.754;2022-10-16T02:55:07;15.88;;;6.10;;
62006;SDS011;47963;53.008;6.754;2022-10-16T02:57:33;16.17;;;5.80;;
62006;SDS011;47963;53.008;6.754;2022-10-16T02:59:59;15.90;;;6.10;;
62006;SDS011;47963;53.008;6.754;2022-10-16T03:02:24;17.23;;;5.85;;
62006;SDS011;47963;53.008;6.754;2022-10-16T03:04:50;14.73;;;6.30;;
62006;SDS011;47963;53.008;6.754;2022-10-16T03:07:16;16.73;;;6.05;;
62006;SDS011;47963;53.008;6.754;2022-10-16T03:09:41;16.38;;;5.72;;
62006;SDS011;47963;53.008;6.754;2022-10-16T03:12:07;16.52;;;5.90;;
62006;SDS011;47963;53.008;6.754;2022-10-16T03:14:33;14.32;;;5.45;;
62006;SDS011;47963;53.008;6.754;2022-10-16T03:16:59;14.18;;;6.05;;
62006;SDS011;47963;53.008;6.754;2022-10-16T03:19:24;13.43;;;6.05;;
62006;SDS011;47963;53.008;6.754;2022-10-16T03:21:50;16.27;;;6.00;;
62006;SDS011;47963;53.008;6.754;2022-10-16T03:24:16;12.13;;;5.45;;
62006;SDS011;47963;53.008;6.754;2022-10-16T03:26:41;13.60;;;5.93;;
62006;SDS011;47963;53.008;6.754;2022-10-16T03:29:07;16.73;;;5.60;;
62006;SDS011;47963;53.008;6.754;2022-10-16T03:31:33;16.92;;;5.82;;
62006;SDS011;47963;53.008;6.754;2022-10-16T03:33:59;18.00;;;5.97;;
62006;SDS011;47963;53.008;6.754;2022-10-16T03:36:24;12.80;;;5.40;;
62006;SDS011;47963;53.008;6.754;2022-10-16T03:38:50;13.45;;;5.72;;
62006;SDS011;47963;53.008;6.754;2022-10-16T03:41:16;13.45;;;5.60;;
62006;SDS011;47963;53.008;6.754;2022-10-16T03:43:41;14.88;;;5.55;;
62006;SDS011;47963;53.008;6.754;2022-10-16T03:46:07;13.77;;;5.78;;
62006;SDS011;47963;53.008;6.754;2022-10-16T03:48:33;12.85;;;5.13;;
62006;SDS011;47963;53.008;6.754;2022-10-16T03:50:59;13.35;;;5.45;;
62006;SDS011;47963;53.008;6.754;2022-10-16T03:53:24;15.90;;;5.70;;
62006;SDS011;47963;53.008;6.754;2022-10-16T03:55:50;11.23;;;5.43;;
62006;SDS011;47963;53.008;6.754;2022-10-16T03:58:16;13.98;;;5.80;;
62006;SDS011;47963;53.008;6.754;2022-10-16T04:00:45;13.73;;;5.32;;
62006;SDS011;47963;53.008;6.754;2022-10-16T04:03:12;14.60;;;6.30;;
62006;SDS011;47963;53.008;6.754;2022-10-16T04:05:37;12.35;;;6.00;;
62006;SDS011;47963;53.008;6.754;2022-10-16T04:08:03;16.60;;;5.70;;
62006;SDS011;47963;53.008;6.754;2022-10-16T04:10:29;13.18;;;5.80;;
62006;SDS011;47963;53.008;6.754;2022-10-16T04:12:55;13.07;;;5.75;;
62006;SDS011;47963;53.008;6.754;2022-10-16T04:15:24;14.85;;;6.18;;
62006;SDS011;47963;53.008;6.754;2022-10-16T04:17:50;12.60;;;5.60;;
62006;SDS011;47963;53.008;6.754;2022-10-16T04:20:17;14.80;;;5.90;;
62006;SDS011;47963;53.008;6.754;2022-10-16T04:22:43;13.57;;;6.03;;
62006;SDS011;47963;53.008;6.754;2022-10-16T04:25:08;14.10;;;6.25;;
62006;SDS011;47963;53.008;6.754;2022-10-16T04:27:34;13.27;;;6.28;;
62006;SDS011;47963;53.008;6.754;2022-10-16T04:30:00;14.57;;;6.72;;
62006;SDS011;47963;53.008;6.754;2022-10-16T04:32:26;12.65;;;6.10;;
62006;SDS011;47963;53.008;6.754;2022-10-16T04:34:52;16.15;;;6.80;;
62006;SDS011;47963;53.008;6.754;2022-10-16T04:37:19;15.02;;;6.88;;
62006;SDS011;47963;53.008;6.754;2022-10-16T04:39:49;15.98;;;7.07;;
62006;SDS011;47963;53.008;6.754;2022-10-16T04:42:14;14.38;;;6.72;;
62006;SDS011;47963;53.008;6.754;2022-10-16T04:44:40;15.85;;;6.93;;
62006;SDS011;47963;53.008;6.754;2022-10-16T04:47:06;15.55;;;7.28;;
62006;SDS011;47963;53.008;6.754;2022-10-16T04:49:31;15.98;;;7.00;;
62006;SDS011;47963;53.008;6.754;2022-10-16T04:51:57;17.80;;;7.20;;
62006;SDS011;47963;53.008;6.754;2022-10-16T04:54:22;14.32;;;6.85;;
62006;SDS011;47963;53.008;6.754;2022-10-16T04:56:48;12.77;;;6.50;;
62006;SDS011;47963;53.008;6.754;2022-10-16T04:59:16;17.45;;;6.78;;
62006;SDS011;47963;53.008;6.754;2022-10-16T05:01:43;15.85;;;7.20;;
62006;SDS011;47963;53.008;6.754;2022-10-16T05:04:09;15.60;;;6.45;;
62006;SDS011;47963;53.008;6.754;2022-10-16T05:06:34;17.67;;;6.90;;
62006;SDS011;47963;53.008;6.754;2022-10-16T05:09:00;14.35;;;6.90;;
62006;SDS011;47963;53.008;6.754;2022-10-16T05:11:26;15.75;;;7.57;;
62006;SDS011;47963;53.008;6.754;2022-10-16T05:13:52;15.55;;;6.57;;
62006;SDS011;47963;53.008;6.754;2022-10-16T05:16:17;16.55;;;7.13;;
62006;SDS011;47963;53.008;6.754;2022-10-16T05:18:43;14.35;;;6.70;;
62006;SDS011;47963;53.008;6.754;2022-10-16T05:21:08;15.30;;;7.28;;
62006;SDS011;47963;53.008;6.754;2022-10-16T05:23:34;19.63;;;7.40;;
62006;SDS011;47963;53.008;6.754;2022-10-16T05:26:00;19.27;;;7.68;;
62006;SDS011;47963;53.008;6.754;2022-10-16T05:28:26;17.35;;;7.70;;
62006;SDS011;47963;53.008;6.754;2022-10-16T05:30:53;13.98;;;7.13;;
62006;SDS011;47963;53.008;6.754;2022-10-16T05:33:23;18.45;;;7.88;;
62006;SDS011;47963;53.008;6.754;2022-10-16T05:35:50;22.95;;;8.65;;
62006;SDS011;47963;53.008;6.754;2022-10-16T05:38:17;15.05;;;7.75;;
62006;SDS011;47963;53.008;6.754;2022-10-16T05:40:43;13.43;;;7.10;;
62006;SDS011;47963;53.008;6.754;2022-10-16T05:43:09;16.92;;;8.15;;
62006;SDS011;47963;53.008;6.754;2022-10-16T05:45:34;15.30;;;7.50;;
62006;SDS011;47963;53.008;6.754;2022-10-16T05:48:00;16.20;;;7.93;;
62006;SDS011;47963;53.008;6.754;2022-10-16T05:50:26;15.48;;;7.57;;
62006;SDS011;47963;53.008;6.754;2022-10-16T05:52:52;14.85;;;7.80;;
62006;SDS011;47963;53.008;6.754;2022-10-16T05:55:17;17.40;;;8.05;;
62006;SDS011;47963;53.008;6.754;2022-10-16T05:57:43;15.98;;;8.20;;
62006;SDS011;47963;53.008;6.754;2022-10-16T06:00:09;14.48;;;7.53;;
62006;SDS011;47963;53.008;6.754;2022-10-16T06:02:35;14.68;;;7.53;;
62006;SDS011;47963;53.008;6.754;2022-10-16T06:05:01;16.15;;;7.40;;
62006;SDS011;47963;53.008;6.754;2022-10-16T06:07:27;17.35;;;7.78;;
62006;SDS011;47963;53.008;6.754;2022-10-16T06:09:52;14.27;;;7.13;;
62006;SDS011;47963;53.008;6.754;2022-10-16T06:12:18;16.63;;;7.82;;
62006;SDS011;47963;53.008;6.754;2022-10-16T06:14:45;14.65;;;7.45;;
62006;SDS011;47963;53.008;6.754;2022-10-16T06:17:12;18.50;;;8.15;;
62006;SDS011;47963;53.008;6.754;2022-10-16T06:19:39;15.98;;;7.32;;
62006;SDS011;47963;53.008;6.754;2022-10-16T06:22:05;15.57;;;7.72;;
62006;SDS011;47963;53.008;6.754;2022-10-16T06:24:31;13.77;;;7.28;;
62006;SDS011;47963;53.008;6.754;2022-10-16T06:26:56;16.60;;;7.90;;
62006;SDS011;47963;53.008;6.754;2022-10-16T06:29:22;16.05;;;7.32;;
62006;SDS011;47963;53.008;6.754;2022-10-16T06:31:48;16.92;;;7.40;;
62006;SDS011;47963;53.008;6.754;2022-10-16T06:34:13;15.35;;;7.22;;
62006;SDS011;47963;53.008;6.754;2022-10-16T06:36:39;16.23;;;6.80;;
62006;SDS011;47963;53.008;6.754;2022-10-16T06:39:06;14.27;;;6.75;;
62006;SDS011;47963;53.008;6.754;2022-10-16T06:41:32;13.60;;;6.85;;
62006;SDS011;47963;53.008;6.754;2022-10-16T06:43:58;15.52;;;6.65;;
62006;SDS011;47963;53.008;6.754;2022-10-16T06:46:25;14.48;;;6.50;;
62006;SDS011;47963;53.008;6.754;2022-10-16T06:48:50;16.77;;;7.15;;
62006;SDS011;47963;53.008;6.754;2022-10-16T06:51:18;14.13;;;6.32;;
62006;SDS011;47963;53.008;6.754;2022-10-16T06:53:46;16.05;;;6.70;;
62006;SDS011;47963;53.008;6.754;2022-10-16T06:56:24;15.90;;;7.10;;
62006;SDS011;47963;53.008;6.754;2022-10-16T06:58:51;15.68;;;6.93;;
62006;SDS011;47963;53.008;6.754;2022-10-16T07:01:18;17.33;;;6.35;;
62006;SDS011;47963;53.008;6.754;2022-10-16T07:03:45;13.57;;;5.60;;
62006;SDS011;47963;53.008;6.754;2022-10-16T07:06:13;13.18;;;6.38;;
62006;SDS011;47963;53.008;6.754;2022-10-16T07:08:40;13.93;;;6.22;;
62006;SDS011;47963;53.008;6.754;2022-10-16T07:11:09;13.48;;;6.40;;
62006;SDS011;47963;53.008;6.754;2022-10-16T07:13:36;13.35;;;6.20;;
62006;SDS011;47963;53.008;6.754;2022-10-16T07:16:06;13.43;;;5.95;;
62006;SDS011;47963;53.008;6.754;2022-10-16T07:18:34;16.60;;;5.82;;
62006;SDS011;47963;53.008;6.754;2022-10-16T07:23:34;14.35;;;6.30;;
62006;SDS011;47963;53.008;6.754;2022-10-16T07:26:00;11.95;;;5.80;;
62006;SDS011;47963;53.008;6.754;2022-10-16T07:28:26;13.80;;;5.80;;
62006;SDS011;47963;53.008;6.754;2022-10-16T07:30:53;15.05;;;5.70;;
62006;SDS011;47963;53.008;6.754;2022-10-16T07:33:18;14.95;;;6.25;;
62006;SDS011;47963;53.008;6.754;2022-10-16T07:35:48;14.02;;;5.63;;
62006;SDS011;47963;53.008;6.754;2022-10-16T07:38:17;14.27;;;6.00;;
62006;SDS011;47963;53.008;6.754;2022-10-16T07:40:43;11.98;;;5.45;;
62006;SDS011;47963;53.008;6.754;2022-10-16T07:43:09;13.82;;;5.53;;
62006;SDS011;47963;53.008;6.754;2022-10-16T07:45:35;12.15;;;5.70;;
62006;SDS011;47963;53.008;6.754;2022-10-16T07:48:01;16.15;;;5.55;;
62006;SDS011;47963;53.008;6.754;2022-10-16T07:50:27;16.52;;;5.38;;
62006;SDS011;47963;53.008;6.754;2022-10-16T07:52:52;13.32;;;5.28;;
62006;SDS011;47963;53.008;6.754;2022-10-16T07:55:18;16.08;;;5.70;;
62006;SDS011;47963;53.008;6.754;2022-10-16T07:57:43;14.10;;;4.90;;
62006;SDS011;47963;53.008;6.754;2022-10-16T08:00:09;14.73;;;5.53;;
62006;SDS011;47963;53.008;6.754;2022-10-16T08:02:39;14.00;;;5.15;;
62006;SDS011;47963;53.008;6.754;2022-10-16T08:05:05;14.40;;;5.18;;
62006;SDS011;47963;53.008;6.754;2022-10-16T08:07:32;14.45;;;5.10;;
62006;SDS011;47963;53.008;6.754;2022-10-16T08:09:57;12.25;;;4.78;;
62006;SDS011;47963;53.008;6.754;2022-10-16T08:12:24;14.27;;;4.90;;
62006;SDS011;47963;53.008;6.754;2022-10-16T08:14:52;10.07;;;4.15;;
62006;SDS011;47963;53.008;6.754;2022-10-16T08:17:18;15.27;;;5.10;;
62006;SDS011;47963;53.008;6.754;2022-10-16T08:19:44;11.18;;;4.18;;
62006;SDS011;47963;53.008;6.754;2022-10-16T08:22:13;14.52;;;4.13;;
62006;SDS011;47963;53.008;6.754;2022-10-16T08:24:39;14.43;;;4.50;;
62006;SDS011;47963;53.008;6.754;2022-10-16T08:27:05;12.80;;;4.38;;
62006;SDS011;47963;53.008;6.754;2022-10-16T08:29:32;16.50;;;3.88;;
62006;SDS011;47963;53.008;6.754;2022-10-16T08:31:57;15.52;;;3.97;;
62006;SDS011;47963;53.008;6.754;2022-10-16T08:34:23;13.98;;;3.88;;
62006;SDS011;47963;53.008;6.754;2022-10-16T08:36:49;18.90;;;3.40;;
62006;SDS011;47963;53.008;6.754;2022-10-16T08:39:15;13.05;;;3.35;;
62006;SDS011;47963;53.008;6.754;2022-10-16T08:50:13;11.27;;;3.08;;
62006;SDS011;47963;53.008;6.754;2022-10-16T08:52:43;13.27;;;3.22;;
62006;SDS011;47963;53.008;6.754;2022-10-16T08:55:19;11.60;;;3.35;;
62006;SDS011;47963;53.008;6.754;2022-10-16T08:57:48;13.70;;;3.30;;
62006;SDS011;47963;53.008;6.754;2022-10-16T09:00:14;10.73;;;2.80;;
62006;SDS011;47963;53.008;6.754;2022-10-16T09:03:30;10.60;;;2.85;;
62006;SDS011;47963;53.008;6.754;2022-10-16T09:08:21;11.23;;;3.25;;
62006;SDS011;47963;53.008;6.754;2022-10-16T09:11:01;10.45;;;3.08;;
62006;SDS011;47963;53.008;6.754;2022-10-16T09:13:40;11.32;;;3.00;;
62006;SDS011;47963;53.008;6.754;2022-10-16T09:21:38;13.60;;;3.30;;
62006;SDS011;47963;53.008;6.754;2022-10-16T09:24:09;19.77;;;4.28;;
62006;SDS011;47963;53.008;6.754;2022-10-16T09:26:39;19.02;;;4.18;;
62006;SDS011;47963;53.008;6.754;2022-10-16T09:29:04;13.15;;;3.60;;
62006;SDS011;47963;53.008;6.754;2022-10-16T09:31:30;16.20;;;3.92;;
62006;SDS011;47963;53.008;6.754;2022-10-16T09:34:00;19.48;;;3.92;;
62006;SDS011;47963;53.008;6.754;2022-10-16T09:36:34;19.38;;;4.00;;
62006;SDS011;47963;53.008;6.754;2022-10-16T09:39:10;15.70;;;3.85;;
62006;SDS011;47963;53.008;6.754;2022-10-16T09:41:40;20.75;;;4.50;;
62006;SDS011;47963;53.008;6.754;2022-10-16T09:44:25;18.58;;;4.57;;
62006;SDS011;47963;53.008;6.754;2022-10-16T09:47:10;20.52;;;4.15;;
62006;SDS011;47963;53.008;6.754;2022-10-16T09:49:49;17.38;;;3.65;;
62006;SDS011;47963;53.008;6.754;2022-10-16T09:52:21;16.45;;;3.83;;
62006;SDS011;47963;53.008;6.754;2022-10-16T09:57:17;23.15;;;4.45;;
62006;SDS011;47963;53.008;6.754;2022-10-16T09:59:50;21.23;;;4.18;;
62006;SDS011;47963;53.008;6.754;2022-10-16T10:02:18;21.50;;;4.18;;
62006;SDS011;47963;53.008;6.754;2022-10-16T10:04:55;22.38;;;4.40;;
62006;SDS011;47963;53.008;6.754;2022-10-16T10:07:28;22.00;;;4.40;;
62006;SDS011;47963;53.008;6.754;2022-10-16T10:10:02;26.65;;;5.03;;
62006;SDS011;47963;53.008;6.754;2022-10-16T10:12:30;21.83;;;4.68;;
62006;SDS011;47963;53.008;6.754;2022-10-16T10:14:58;23.55;;;5.07;;
62006;SDS011;47963;53.008;6.754;2022-10-16T10:17:28;23.23;;;4.57;;
62006;SDS011;47963;53.008;6.754;2022-10-16T10:22:38;26.40;;;4.97;;
62006;SDS011;47963;53.008;6.754;2022-10-16T10:41:50;24.88;;;4.95;;
62006;SDS011;47963;53.008;6.754;2022-10-16T10:46:32;23.63;;;4.15;;
62006;SDS011;47963;53.008;6.754;2022-10-16T10:59:58;18.08;;;3.95;;
62006;SDS011;47963;53.008;6.754;2022-10-16T11:03:08;26.77;;;5.03;;
62006;SDS011;47963;53.008;6.754;2022-10-16T11:08:47;20.05;;;4.68;;
62006;SDS011;47963;53.008;6.754;2022-10-16T11:11:29;22.00;;;4.93;;
62006;SDS011;47963;53.008;6.754;2022-10-16T11:16:43;28.77;;;5.38;;
62006;SDS011;47963;53.008;6.754;2022-10-16T11:19:35;24.42;;;4.70;;
62006;SDS011;47963;53.008;6.754;2022-10-16T11:22:12;21.52;;;4.43;;
62006;SDS011;47963;53.008;6.754;2022-10-16T11:24:51;27.33;;;4.82;;
62006;SDS011;47963;53.008;6.754;2022-10-16T11:27:32;27.60;;;5.15;;
62006;SDS011;47963;53.008;6.754;2022-10-16T11:30:26;30.58;;;4.90;;
62006;SDS011;47963;53.008;6.754;2022-10-16T11:35:41;25.88;;;4.75;;
62006;SDS011;47963;53.008;6.754;2022-10-16T11:38:15;28.48;;;5.88;;
62006;SDS011;47963;53.008;6.754;2022-10-16T11:40:45;25.88;;;5.40;;
62006;SDS011;47963;53.008;6.754;2022-10-16T11:43:20;29.60;;;5.28;;
62006;SDS011;47963;53.008;6.754;2022-10-16T11:45:53;23.20;;;4.93;;
62006;SDS011;47963;53.008;6.754;2022-10-16T11:50:58;24.85;;;5.25;;
62006;SDS011;47963;53.008;6.754;2022-10-16T11:56:40;25.83;;;5.45;;
62006;SDS011;47963;53.008;6.754;2022-10-16T11:59:21;22.73;;;4.78;;
62006;SDS011;47963;53.008;6.754;2022-10-16T12:05:06;25.98;;;4.90;;
62006;SDS011;47963;53.008;6.754;2022-10-16T12:08:11;28.77;;;5.45;;
62006;SDS011;47963;53.008;6.754;2022-10-16T12:10:40;25.23;;;4.78;;
62006;SDS011;47963;53.008;6.754;2022-10-16T12:13:29;27.40;;;5.00;;
62006;SDS011;47963;53.008;6.754;2022-10-16T12:18:38;27.90;;;5.10;;
62006;SDS011;47963;53.008;6.754;2022-10-16T12:21:05;25.75;;;4.68;;
62006;SDS011;47963;53.008;6.754;2022-10-16T12:23:32;28.88;;;5.00;;
62006;SDS011;47963;53.008;6.754;2022-10-16T12:26:02;26.08;;;5.40;;
62006;SDS011;47963;53.008;6.754;2022-10-16T12:28:30;31.50;;;5.90;;
62006;SDS011;47963;53.008;6.754;2022-10-16T12:31:05;28.38;;;5.05;;
62006;SDS011;47963;53.008;6.754;2022-10-16T12:33:36;23.95;;;4.50;;
62006;SDS011;47963;53.008;6.754;2022-10-16T12:36:08;30.17;;;4.70;;
62006;SDS011;47963;53.008;6.754;2022-10-16T12:38:47;26.30;;;5.00;;
62006;SDS011;47963;53.008;6.754;2022-10-16T12:41:24;31.17;;;4.95;;
62006;SDS011;47963;53.008;6.754;2022-10-16T12:43:52;28.50;;;5.07;;
62006;SDS011;47963;53.008;6.754;2022-10-16T12:48:44;28.48;;;4.25;;
62006;SDS011;47963;53.008;6.754;2022-10-16T12:51:11;26.83;;;4.45;;
62006;SDS011;47963;53.008;6.754;2022-10-16T12:53:46;26.38;;;4.68;;
62006;SDS011;47963;53.008;6.754;2022-10-16T12:57:12;23.98;;;4.65;;
62006;SDS011;47963;53.008;6.754;2022-10-16T12:59:47;23.85;;;4.00;;
62006;SDS011;47963;53.008;6.754;2022-10-16T13:19:21;28.00;;;3.72;;
62006;SDS011;47963;53.008;6.754;2022-10-16T13:27:37;23.60;;;3.65;;
62006;SDS011;47963;53.008;6.754;2022-10-16T13:30:19;22.67;;;3.65;;
62006;SDS011;47963;53.008;6.754;2022-10-16T13:32:48;20.52;;;3.25;;
62006;SDS011;47963;53.008;6.754;2022-10-16T13:35:20;20.35;;;3.40;;
62006;SDS011;47963;53.008;6.754;2022-10-16T13:37:47;24.75;;;4.68;;
62006;SDS011;47963;53.008;6.754;2022-10-16T13:40:18;20.75;;;3.45;;
62006;SDS011;47963;53.008;6.754;2022-10-16T13:42:49;21.58;;;3.70;;
62006;SDS011;47963;53.008;6.754;2022-10-16T13:45:20;22.73;;;3.20;;
62006;SDS011;47963;53.008;6.754;2022-10-16T13:47:47;25.13;;;3.47;;
62006;SDS011;47963;53.008;6.754;2022-10-16T13:50:17;20.67;;;3.85;;
62006;SDS011;47963;53.008;6.754;2022-10-16T13:52:43;23.42;;;4.32;;
62006;SDS011;47963;53.008;6.754;2022-10-16T13:55:14;24.10;;;3.78;;
62006;SDS011;47963;53.008;6.754;2022-10-16T13:57:42;23.42;;;3.22;;
62006;SDS011;47963;53.008;6.754;2022-10-16T14:00:24;24.00;;;3.97;;
62006;SDS011;47963;53.008;6.754;2022-10-16T14:03:13;28.52;;;4.10;;
62006;SDS011;47963;53.008;6.754;2022-10-16T14:05:47;24.08;;;3.65;;
62006;SDS011;47963;53.008;6.754;2022-10-16T14:08:18;29.33;;;4.20;;
62006;SDS011;47963;53.008;6.754;2022-10-16T14:10:47;21.85;;;3.33;;
62006;SDS011;47963;53.008;6.754;2022-10-16T14:13:16;24.42;;;3.80;;
62006;SDS011;47963;53.008;6.754;2022-10-16T14:15:48;21.63;;;3.42;;
62006;SDS011;47963;53.008;6.754;2022-10-16T14:18:20;19.47;;;3.17;;
62006;SDS011;47963;53.008;6.754;2022-10-16T14:20:48;21.58;;;3.63;;
62006;SDS011;47963;53.008;6.754;2022-10-16T14:28:36;18.70;;;3.38;;
62006;SDS011;47963;53.008;6.754;2022-10-16T14:31:16;26.83;;;3.95;;
62006;SDS011;47963;53.008;6.754;2022-10-16T14:33:50;29.95;;;4.28;;
62006;SDS011;47963;53.008;6.754;2022-10-16T14:36:16;28.83;;;4.55;;
62006;SDS011;47963;53.008;6.754;2022-10-16T14:41:46;24.10;;;3.88;;
62006;SDS011;47963;53.008;6.754;2022-10-16T14:44:13;24.20;;;3.53;;
62006;SDS011;47963;53.008;6.754;2022-10-16T14:46:40;24.63;;;4.28;;
62006;SDS011;47963;53.008;6.754;2022-10-16T14:51:33;20.67;;;3.90;;
62006;SDS011;47963;53.008;6.754;2022-10-16T14:53:59;26.65;;;4.20;;
62006;SDS011;47963;53.008;6.754;2022-10-16T14:56:25;20.58;;;3.60;;
62006;SDS011;47963;53.008;6.754;2022-10-16T14:58:55;21.05;;;3.70;;
62006;SDS011;47963;53.008;6.754;2022-10-16T15:01:21;24.90;;;3.92;;
62006;SDS011;47963;53.008;6.754;2022-10-16T15:03:47;20.30;;;3.42;;
62006;SDS011;47963;53.008;6.754;2022-10-16T15:06:14;29.15;;;4.43;;
62006;SDS011;47963;53.008;6.754;2022-10-16T15:08:40;19.65;;;3.45;;
62006;SDS011;47963;53.008;6.754;2022-10-16T15:11:12;26.30;;;4.28;;
62006;SDS011;47963;53.008;6.754;2022-10-16T15:13:40;21.33;;;3.67;;
62006;SDS011;47963;53.008;6.754;2022-10-16T15:16:10;30.30;;;4.15;;
62006;SDS011;47963;53.008;6.754;2022-10-16T15:18:38;20.42;;;3.60;;
62006;SDS011;47963;53.008;6.754;2022-10-16T15:21:04;23.08;;;4.32;;
62006;SDS011;47963;53.008;6.754;2022-10-16T15:23:29;26.52;;;3.88;;
62006;SDS011;47963;53.008;6.754;2022-10-16T15:25:55;19.45;;;3.40;;
62006;SDS011;47963;53.008;6.754;2022-10-16T15:28:22;26.95;;;4.38;;
62006;SDS011;47963;53.008;6.754;2022-10-16T15:30:50;28.13;;;4.32;;
62006;SDS011;47963;53.008;6.754;2022-10-16T15:33:21;22.73;;;4.35;;
62006;SDS011;47963;53.008;6.754;2022-10-16T15:35:49;19.63;;;3.55;;
62006;SDS011;47963;53.008;6.754;2022-10-16T15:38:17;23.27;;;3.72;;
62006;SDS011;47963;53.008;6.754;2022-10-16T15:40:44;26.13;;;4.00;;
62006;SDS011;47963;53.008;6.754;2022-10-16T15:43:10;21.98;;;4.60;;
62006;SDS011;47963;53.008;6.754;2022-10-16T15:45:36;22.83;;;3.90;;
62006;SDS011;47963;53.008;6.754;2022-10-16T15:48:02;25.52;;;3.95;;
62006;SDS011;47963;53.008;6.754;2022-10-16T15:50:28;21.52;;;3.80;;
62006;SDS011;47963;53.008;6.754;2022-10-16T15:52:55;24.45;;;4.82;;
62006;SDS011;47963;53.008;6.754;2022-10-16T15:55:21;28.15;;;4.20;;
62006;SDS011;47963;53.008;6.754;2022-10-16T15:57:47;22.60;;;4.45;;
62006;SDS011;47963;53.008;6.754;2022-10-16T16:00:17;23.67;;;3.90;;
62006;SDS011;47963;53.008;6.754;2022-10-16T16:02:49;22.90;;;4.20;;
62006;SDS011;47963;53.008;6.754;2022-10-16T16:05:16;21.52;;;3.95;;
62006;SDS011;47963;53.008;6.754;2022-10-16T16:07:42;24.73;;;4.57;;
62006;SDS011;47963;53.008;6.754;2022-10-16T16:10:09;28.70;;;4.55;;
62006;SDS011;47963;53.008;6.754;2022-10-16T16:12:35;26.92;;;4.80;;
62006;SDS011;47963;53.008;6.754;2022-10-16T16:15:02;22.38;;;3.90;;
62006;SDS011;47963;53.008;6.754;2022-10-16T16:17:32;19.95;;;3.80;;
62006;SDS011;47963;53.008;6.754;2022-10-16T16:19:58;30.40;;;4.25;;
62006;SDS011;47963;53.008;6.754;2022-10-16T16:22:24;24.83;;;5.15;;
62006;SDS011;47963;53.008;6.754;2022-10-16T16:24:49;18.77;;;4.13;;
62006;SDS011;47963;53.008;6.754;2022-10-16T16:27:15;27.02;;;5.22;;
62006;SDS011;47963;53.008;6.754;2022-10-16T16:29:41;27.95;;;4.75;;
62006;SDS011;47963;53.008;6.754;2022-10-16T16:32:07;22.55;;;5.00;;
62006;SDS011;47963;53.008;6.754;2022-10-16T16:34:32;22.90;;;4.88;;
62006;SDS011;47963;53.008;6.754;2022-10-16T16:36:58;27.50;;;5.00;;
62006;SDS011;47963;53.008;6.754;2022-10-16T16:39:24;23.25;;;5.15;;
62006;SDS011;47963;53.008;6.754;2022-10-16T16:41:50;25.45;;;5.47;;
62006;SDS011;47963;53.008;6.754;2022-10-16T16:44:16;22.17;;;5.20;;
62006;SDS011;47963;53.008;6.754;2022-10-16T16:46:42;22.23;;;5.43;;